createdAt,value
2023-05-21T00:00:09.210Z,77.38
2023-05-21T00:00:41.685Z,77.59
2023-05-21T00:01:14.152Z,77.59
2023-05-21T00:01:46.568Z,77.59
2023-05-21T00:02:19.095Z,77.59
2023-05-21T00:02:51.713Z,77.59
2023-05-21T00:03:24.056Z,77.89
2023-05-21T00:03:56.564Z,77.89
2023-05-21T00:04:28.899Z,77.89
2023-05-21T00:05:01.355Z,77.89
2023-05-21T00:05:33.992Z,77.89
2023-05-21T00:06:06.324Z,77.89
2023-05-21T00:06:38.881Z,77.89
2023-05-21T00:07:11.250Z,78.13
2023-05-21T00:07:43.738Z,78.03
2023-05-21T00:08:16.157Z,78.03
2023-05-21T00:08:48.578Z,78.13
2023-05-21T00:09:21.012Z,78.23
2023-05-21T00:09:53.474Z,78.23
2023-05-21T00:10:25.967Z,78.23
2023-05-21T00:10:58.432Z,78.44
2023-05-21T00:11:30.866Z,78.33
2023-05-21T00:12:03.355Z,78.13
2023-05-21T00:12:35.861Z,78.23
2023-05-21T00:13:08.283Z,78.33
2023-05-21T00:13:40.770Z,78.33
2023-05-21T00:14:13.210Z,78.33
2023-05-21T00:14:45.633Z,78.23
2023-05-21T00:15:18.156Z,78.33
2023-05-21T00:15:50.596Z,78.44
2023-05-21T00:16:23.097Z,78.53
2023-05-21T00:16:55.556Z,78.44
2023-05-21T00:17:28.128Z,78.44
2023-05-21T00:18:00.580Z,78.44
2023-05-21T00:18:33.004Z,78.64
2023-05-21T00:19:05.473Z,78.74
2023-05-21T00:19:37.856Z,78.74
2023-05-21T00:20:10.296Z,78.84
2023-05-21T00:20:42.732Z,78.94
2023-05-21T00:21:15.184Z,78.74
2023-05-21T00:21:47.629Z,78.74
2023-05-21T00:22:20.062Z,78.74
2023-05-21T00:22:52.544Z,78.88
2023-05-21T00:23:25.049Z,78.78
2023-05-21T00:23:57.483Z,79.08
2023-05-21T00:24:29.902Z,79.08
2023-05-21T00:25:02.325Z,79.08
2023-05-21T00:25:35.050Z,79.18
2023-05-21T00:26:07.360Z,79.18
2023-05-21T00:26:39.773Z,79.28
2023-05-21T00:27:12.235Z,79.28
2023-05-21T00:27:44.762Z,79.28
2023-05-21T00:28:17.201Z,79.18
2023-05-21T00:28:49.652Z,79.18
2023-05-21T00:29:22.087Z,79.28
2023-05-21T00:29:54.515Z,79.49
2023-05-21T00:30:26.953Z,79.49
2023-05-21T00:30:59.434Z,79.59
2023-05-21T00:31:31.978Z,79.38
2023-05-21T00:32:04.457Z,79.49
2023-05-21T00:32:36.963Z,79.59
2023-05-21T00:33:09.354Z,79.59
2023-05-21T00:33:41.803Z,79.59
2023-05-21T00:34:14.236Z,79.49
2023-05-21T00:34:46.687Z,79.59
2023-05-21T00:35:19.137Z,79.79
2023-05-21T00:35:51.605Z,79.79
2023-05-21T00:36:24.038Z,79.49
2023-05-21T00:36:56.432Z,79.79
2023-05-21T00:37:28.880Z,79.90
2023-05-21T00:38:01.307Z,79.79
2023-05-21T00:38:33.736Z,79.90
2023-05-21T00:39:06.201Z,79.99
2023-05-21T00:39:38.670Z,79.99
2023-05-21T00:40:11.120Z,79.99
2023-05-21T00:40:43.570Z,79.99
2023-05-21T00:41:16.009Z,80.10
2023-05-21T00:41:48.428Z,80.10
2023-05-21T00:42:20.847Z,80.10
2023-05-21T00:42:53.306Z,80.10
2023-05-21T00:43:25.755Z,80.10
2023-05-21T00:43:58.179Z,80.10
2023-05-21T00:44:30.608Z,80.30
2023-05-21T00:45:03.068Z,80.30
2023-05-21T00:45:35.666Z,80.33
2023-05-21T00:46:08.066Z,80.44
2023-05-21T00:46:40.469Z,80.44
2023-05-21T00:47:12.923Z,80.44
2023-05-21T00:47:45.448Z,80.44
2023-05-21T00:48:17.837Z,80.33
2023-05-21T00:48:50.276Z,80.54
2023-05-21T00:49:22.717Z,80.44
2023-05-21T00:49:55.152Z,80.44
2023-05-21T00:50:27.616Z,80.33
2023-05-21T00:51:00.119Z,80.44
2023-05-21T00:51:32.556Z,80.54
2023-05-21T00:52:05.030Z,80.54
2023-05-21T00:52:37.500Z,80.64
2023-05-21T00:53:09.988Z,80.64
2023-05-21T00:53:42.637Z,80.54
2023-05-21T00:54:15.120Z,80.33
2023-05-21T00:54:47.607Z,80.54
2023-05-21T00:55:20.232Z,80.54
2023-05-21T00:55:52.702Z,80.64
2023-05-21T00:56:25.159Z,80.74
2023-05-21T00:56:57.600Z,80.84
2023-05-21T00:57:30.035Z,81.05
2023-05-21T00:58:02.512Z,81.05
2023-05-21T00:58:34.984Z,81.05
2023-05-21T00:59:07.413Z,81.15
2023-05-21T00:59:39.880Z,81.15
2023-05-21T01:00:12.320Z,81.15
2023-05-21T01:00:44.748Z,81.05
2023-05-21T01:01:17.196Z,80.94
2023-05-21T01:01:49.668Z,81.25
2023-05-21T01:02:22.145Z,81.25
2023-05-21T01:02:54.642Z,81.15
2023-05-21T01:03:27.153Z,81.05
2023-05-21T01:03:59.562Z,81.05
2023-05-21T01:04:31.995Z,81.15
2023-05-21T01:05:04.425Z,81.25
2023-05-21T01:05:37.101Z,81.25
2023-05-21T01:06:09.325Z,81.35
2023-05-21T01:06:41.858Z,81.35
2023-05-21T01:07:14.299Z,81.56
2023-05-21T01:07:46.735Z,81.56
2023-05-21T01:08:19.261Z,81.35
2023-05-21T01:08:51.708Z,81.56
2023-05-21T01:09:24.155Z,81.70
2023-05-21T01:09:56.577Z,81.79
2023-05-21T01:10:29.032Z,81.70
2023-05-21T01:11:01.498Z,81.79
2023-05-21T01:11:33.957Z,81.70
2023-05-21T01:12:06.430Z,81.70
2023-05-21T01:12:38.852Z,82.00
2023-05-21T01:13:11.289Z,82.10
2023-05-21T01:13:43.706Z,82.00
2023-05-21T01:14:16.139Z,82.10
2023-05-21T01:14:48.573Z,82.20
2023-05-21T01:15:21.048Z,82.31
2023-05-21T01:15:53.544Z,82.20
2023-05-21T01:16:26.035Z,82.10
2023-05-21T01:16:58.511Z,82.10
2023-05-21T01:17:30.929Z,82.00
2023-05-21T01:18:03.442Z,82.10
2023-05-21T01:18:35.863Z,82.31
2023-05-21T01:19:08.375Z,82.20
2023-05-21T01:19:40.741Z,82.31
2023-05-21T01:20:13.142Z,82.31
2023-05-21T01:20:45.586Z,82.51
2023-05-21T01:21:18.080Z,82.51
2023-05-21T01:21:50.592Z,82.51
2023-05-21T01:22:23.102Z,82.51
2023-05-21T01:22:55.564Z,82.51
2023-05-21T01:23:27.998Z,82.51
2023-05-21T01:24:00.485Z,82.51
2023-05-21T01:24:32.922Z,82.51
2023-05-21T01:25:05.376Z,82.61
2023-05-21T01:25:38.085Z,82.51
2023-05-21T01:26:10.419Z,82.51
2023-05-21T01:26:42.865Z,82.71
2023-05-21T01:27:15.302Z,82.61
2023-05-21T01:27:47.779Z,82.51
2023-05-21T01:28:20.239Z,82.71
2023-05-21T01:28:52.682Z,82.71
2023-05-21T01:29:25.163Z,82.61
2023-05-21T01:29:57.597Z,82.71
2023-05-21T01:30:30.137Z,82.65
2023-05-21T01:31:02.544Z,82.75
2023-05-21T01:31:34.986Z,82.75
2023-05-21T01:32:07.477Z,82.75
2023-05-21T01:32:39.952Z,82.85
2023-05-21T01:33:12.397Z,82.95
2023-05-21T01:33:44.889Z,82.85
2023-05-21T01:34:17.313Z,82.75
2023-05-21T01:34:49.771Z,82.75
2023-05-21T01:35:22.200Z,82.85
2023-05-21T01:35:54.657Z,82.95
2023-05-21T01:36:27.140Z,83.06
2023-05-21T01:36:59.563Z,83.15
2023-05-21T01:37:32.044Z,83.15
2023-05-21T01:38:04.511Z,83.06
2023-05-21T01:38:36.950Z,83.06
2023-05-21T01:39:09.409Z,83.26
2023-05-21T01:39:41.829Z,83.26
2023-05-21T01:40:14.287Z,83.36
2023-05-21T01:40:46.789Z,83.36
2023-05-21T01:41:19.289Z,83.36
2023-05-21T01:41:51.744Z,83.26
2023-05-21T01:42:24.221Z,83.36
2023-05-21T01:42:56.652Z,83.46
2023-05-21T01:43:29.159Z,83.36
2023-05-21T01:44:01.613Z,83.36
2023-05-21T01:44:34.718Z,83.46
2023-05-21T01:45:07.212Z,83.46
2023-05-21T01:45:39.823Z,83.46
2023-05-21T01:46:12.327Z,83.36
2023-05-21T01:46:44.822Z,83.15
2023-05-21T01:47:17.189Z,83.15
2023-05-21T01:47:49.732Z,83.36
2023-05-21T01:48:22.100Z,83.56
2023-05-21T01:48:54.549Z,83.46
2023-05-21T01:49:26.993Z,83.26
2023-05-21T01:49:59.479Z,83.46
2023-05-21T01:50:31.992Z,83.56
2023-05-21T01:51:04.462Z,83.67
2023-05-21T01:51:36.907Z,83.97
2023-05-21T01:52:09.328Z,83.97
2023-05-21T01:52:41.771Z,83.97
2023-05-21T01:53:14.198Z,83.76
2023-05-21T01:53:46.720Z,83.76
2023-05-21T01:54:19.243Z,83.76
2023-05-21T01:54:51.699Z,83.76
2023-05-21T01:55:24.212Z,83.87
2023-05-21T01:55:56.652Z,83.87
2023-05-21T01:56:29.087Z,83.87
2023-05-21T01:57:01.546Z,83.87
2023-05-21T01:57:34.018Z,83.97
2023-05-21T01:58:06.448Z,84.07
2023-05-21T01:58:38.956Z,84.01
2023-05-21T01:59:11.434Z,84.21
2023-05-21T01:59:43.894Z,84.31
2023-05-21T02:00:16.323Z,84.38
2023-05-21T02:00:48.772Z,84.38
2023-05-21T02:01:21.288Z,84.28
2023-05-21T02:01:53.799Z,84.28
2023-05-21T02:02:26.354Z,84.28
2023-05-21T02:02:58.820Z,84.28
2023-05-21T02:03:31.483Z,84.17
2023-05-21T02:04:03.661Z,84.17
2023-05-21T02:04:36.080Z,84.17
2023-05-21T02:05:08.505Z,84.28
2023-05-21T02:05:40.933Z,84.42
2023-05-21T02:06:13.351Z,84.21
2023-05-21T02:06:45.807Z,84.21
2023-05-21T02:07:18.233Z,84.11
2023-05-21T02:07:50.689Z,84.42
2023-05-21T02:08:23.152Z,84.42
2023-05-21T02:08:55.703Z,84.31
2023-05-21T02:09:28.059Z,84.21
2023-05-21T02:10:00.500Z,84.31
2023-05-21T02:10:32.976Z,84.42
2023-05-21T02:11:05.429Z,84.62
2023-05-21T02:11:37.915Z,84.72
2023-05-21T02:12:10.395Z,84.82
2023-05-21T02:12:42.853Z,84.82
2023-05-21T02:13:15.292Z,85.13
2023-05-21T02:13:47.731Z,85.03
2023-05-21T02:14:20.149Z,85.03
2023-05-21T02:14:52.582Z,85.03
2023-05-21T02:15:25.058Z,85.13
2023-05-21T02:15:57.560Z,85.13
2023-05-21T02:16:30.066Z,84.92
2023-05-21T02:17:02.409Z,84.82
2023-05-21T02:17:34.896Z,85.03
2023-05-21T02:18:07.386Z,85.03
2023-05-21T02:18:39.821Z,85.03
2023-05-21T02:19:12.393Z,85.13
2023-05-21T02:19:44.755Z,85.13
2023-05-21T02:20:17.201Z,85.33
2023-05-21T02:20:49.652Z,85.43
2023-05-21T02:21:22.094Z,85.33
2023-05-21T02:21:54.557Z,85.43
2023-05-21T02:22:27.030Z,85.43
2023-05-21T02:22:59.494Z,85.33
2023-05-21T02:23:31.983Z,85.23
2023-05-21T02:24:04.400Z,85.23
2023-05-21T02:24:36.866Z,85.23
2023-05-21T02:25:09.325Z,85.23
2023-05-21T02:25:41.818Z,85.33
2023-05-21T02:26:14.244Z,85.33
2023-05-21T02:26:46.687Z,85.33
2023-05-21T02:27:19.187Z,85.23
2023-05-21T02:27:51.686Z,85.23
2023-05-21T02:28:24.100Z,85.33
2023-05-21T02:28:56.580Z,85.23
2023-05-21T02:29:29.020Z,85.43
2023-05-21T02:30:01.464Z,85.53
2023-05-21T02:30:33.957Z,85.64
2023-05-21T02:31:06.407Z,85.64
2023-05-21T02:31:38.906Z,85.64
2023-05-21T02:32:11.362Z,85.64
2023-05-21T02:32:43.862Z,85.64
2023-05-21T02:33:16.258Z,85.74
2023-05-21T02:33:48.725Z,85.64
2023-05-21T02:34:21.167Z,85.53
2023-05-21T02:34:53.605Z,85.43
2023-05-21T02:35:26.075Z,85.53
2023-05-21T02:35:58.499Z,85.64
2023-05-21T02:36:30.937Z,85.64
2023-05-21T02:37:03.377Z,85.64
2023-05-21T02:37:35.842Z,85.64
2023-05-21T02:38:08.310Z,85.64
2023-05-21T02:38:40.785Z,85.84
2023-05-21T02:39:13.240Z,85.84
2023-05-21T02:39:45.705Z,85.94
2023-05-21T02:40:18.137Z,85.84
2023-05-21T02:40:50.615Z,85.84
2023-05-21T02:41:23.059Z,85.94
2023-05-21T02:41:55.525Z,85.94
2023-05-21T02:42:27.971Z,85.84
2023-05-21T02:43:00.515Z,85.94
2023-05-21T02:43:32.961Z,85.94
2023-05-21T02:44:05.407Z,85.74
2023-05-21T02:44:37.829Z,85.74
2023-05-21T02:45:10.333Z,85.74
2023-05-21T02:45:42.759Z,85.84
2023-05-21T02:46:15.321Z,85.84
2023-05-21T02:46:47.656Z,85.84
2023-05-21T02:47:20.125Z,85.88
2023-05-21T02:47:52.617Z,85.84
2023-05-21T02:48:25.066Z,85.84
2023-05-21T02:48:57.525Z,85.84
2023-05-21T02:49:30.035Z,85.94
2023-05-21T02:50:02.444Z,85.94
2023-05-21T02:50:34.909Z,86.04
2023-05-21T02:51:07.357Z,86.15
2023-05-21T02:51:39.816Z,86.04
2023-05-21T02:52:12.301Z,86.04
2023-05-21T02:52:44.723Z,86.04
2023-05-21T02:53:17.189Z,86.04
2023-05-21T02:53:49.635Z,86.04
2023-05-21T02:54:22.128Z,85.98
2023-05-21T02:54:54.611Z,85.94
2023-05-21T02:55:27.066Z,85.98
2023-05-21T02:55:59.519Z,86.19
2023-05-21T02:56:31.951Z,86.19
2023-05-21T02:57:04.414Z,86.29
2023-05-21T02:57:36.895Z,86.29
2023-05-21T02:58:09.349Z,86.39
2023-05-21T02:58:41.844Z,86.29
2023-05-21T02:59:14.273Z,86.39
2023-05-21T02:59:46.709Z,86.39
2023-05-21T03:00:19.165Z,86.39
2023-05-21T03:00:51.649Z,86.39
2023-05-21T03:01:24.118Z,86.49
2023-05-21T03:01:56.567Z,86.39
2023-05-21T03:02:29.118Z,86.59
2023-05-21T03:03:01.566Z,86.49
2023-05-21T03:03:34.130Z,86.49
2023-05-21T03:04:06.389Z,86.49
2023-05-21T03:04:38.889Z,86.49
2023-05-21T03:05:11.395Z,86.49
2023-05-21T03:05:43.792Z,86.39
2023-05-21T03:06:16.209Z,86.49
2023-05-21T03:06:48.666Z,86.59
2023-05-21T03:07:21.125Z,86.80
2023-05-21T03:07:53.591Z,86.80
2023-05-21T03:08:26.146Z,86.90
2023-05-21T03:08:58.573Z,86.90
2023-05-21T03:09:31.063Z,86.90
2023-05-21T03:10:03.630Z,86.90
2023-05-21T03:10:36.073Z,86.80
2023-05-21T03:11:08.558Z,86.90
2023-05-21T03:11:41.082Z,86.90
2023-05-21T03:12:13.575Z,86.69
2023-05-21T03:12:46.011Z,86.90
2023-05-21T03:13:18.490Z,87.10
2023-05-21T03:13:50.976Z,87.10
2023-05-21T03:14:23.372Z,87.10
2023-05-21T03:14:55.833Z,87.00
2023-05-21T03:15:28.331Z,87.10
2023-05-21T03:16:00.846Z,87.10
2023-05-21T03:16:33.335Z,87.10
2023-05-21T03:17:05.932Z,87.10
2023-05-21T03:17:38.357Z,87.10
2023-05-21T03:18:10.796Z,87.00
2023-05-21T03:18:43.196Z,87.10
2023-05-21T03:19:15.664Z,87.30
2023-05-21T03:19:48.060Z,87.30
2023-05-21T03:20:20.499Z,87.30
2023-05-21T03:20:52.947Z,87.20
2023-05-21T03:21:25.367Z,87.10
2023-05-21T03:21:57.806Z,87.30
2023-05-21T03:22:30.271Z,87.41
2023-05-21T03:23:02.702Z,87.41
2023-05-21T03:23:35.116Z,87.51
2023-05-21T03:24:07.614Z,87.51
2023-05-21T03:24:40.057Z,87.41
2023-05-21T03:25:12.503Z,87.41
2023-05-21T03:25:44.962Z,87.51
2023-05-21T03:26:17.395Z,87.61
2023-05-21T03:26:49.844Z,87.51
2023-05-21T03:27:22.296Z,87.41
2023-05-21T03:27:54.726Z,87.61
2023-05-21T03:28:27.166Z,87.71
2023-05-21T03:28:59.619Z,87.85
2023-05-21T03:29:32.090Z,87.75
2023-05-21T03:30:06.587Z,87.71
2023-05-21T03:30:36.991Z,87.71
2023-05-21T03:31:09.446Z,87.71
2023-05-21T03:31:41.976Z,87.65
2023-05-21T03:32:14.474Z,87.55
2023-05-21T03:32:46.789Z,87.55
2023-05-21T03:33:19.203Z,87.65
2023-05-21T03:33:51.680Z,87.75
2023-05-21T03:34:24.148Z,87.75
2023-05-21T03:34:56.592Z,87.75
2023-05-21T03:35:29.054Z,87.85
2023-05-21T03:36:01.488Z,87.81
2023-05-21T03:36:33.940Z,87.75
2023-05-21T03:37:06.396Z,87.85
2023-05-21T03:37:38.813Z,87.85
2023-05-21T03:38:11.273Z,87.96
2023-05-21T03:38:43.708Z,87.85
2023-05-21T03:39:16.154Z,87.85
2023-05-21T03:39:48.642Z,87.96
2023-05-21T03:40:21.102Z,87.96
2023-05-21T03:40:53.613Z,88.06
2023-05-21T03:41:26.046Z,88.06
2023-05-21T03:41:58.466Z,88.06
2023-05-21T03:42:30.940Z,88.06
2023-05-21T03:43:03.374Z,88.16
2023-05-21T03:43:35.855Z,88.26
2023-05-21T03:44:08.281Z,88.16
2023-05-21T03:44:40.710Z,88.06
2023-05-21T03:45:13.124Z,87.96
2023-05-21T03:45:45.631Z,87.96
2023-05-21T03:46:18.221Z,87.96
2023-05-21T03:46:50.533Z,88.06
2023-05-21T03:47:22.993Z,88.16
2023-05-21T03:47:55.455Z,88.16
2023-05-21T03:48:27.895Z,88.16
2023-05-21T03:49:00.375Z,88.06
2023-05-21T03:49:32.803Z,88.26
2023-05-21T03:50:05.296Z,88.16
2023-05-21T03:50:37.752Z,88.16
2023-05-21T03:51:10.196Z,88.16
2023-05-21T03:51:42.637Z,88.06
2023-05-21T03:52:15.100Z,88.16
2023-05-21T03:52:47.536Z,88.16
2023-05-21T03:53:20.020Z,88.16
2023-05-21T03:53:52.513Z,88.16
2023-05-21T03:54:24.999Z,88.16
2023-05-21T03:54:57.413Z,88.16
2023-05-21T03:55:29.852Z,88.16
2023-05-21T03:56:02.274Z,88.16
2023-05-21T03:56:34.720Z,88.26
2023-05-21T03:57:07.251Z,88.26
2023-05-21T03:57:39.682Z,88.26
2023-05-21T03:58:12.214Z,88.16
2023-05-21T03:58:44.665Z,88.36
2023-05-21T03:59:17.098Z,88.36
2023-05-21T03:59:49.571Z,88.36
2023-05-21T04:00:21.983Z,88.36
2023-05-21T04:00:54.407Z,88.36
2023-05-21T04:01:26.852Z,88.36
2023-05-21T04:01:59.293Z,88.46
2023-05-21T04:02:31.771Z,88.46
2023-05-21T04:03:04.193Z,88.57
2023-05-21T04:03:37.992Z,88.57
2023-05-21T04:04:09.086Z,88.57
2023-05-21T04:04:41.574Z,88.57
2023-05-21T04:05:13.975Z,88.57
2023-05-21T04:05:46.415Z,88.67
2023-05-21T04:06:18.891Z,88.67
2023-05-21T04:06:51.327Z,88.57
2023-05-21T04:07:23.768Z,88.57
2023-05-21T04:07:56.179Z,88.46
2023-05-21T04:08:28.618Z,88.32
2023-05-21T04:09:01.074Z,88.32
2023-05-21T04:09:35.356Z,88.32
2023-05-21T04:10:06.067Z,88.32
2023-05-21T04:10:38.501Z,88.32
2023-05-21T04:11:10.955Z,88.22
2023-05-21T04:11:43.405Z,88.22
2023-05-21T04:12:15.862Z,88.22
2023-05-21T04:12:48.314Z,88.12
2023-05-21T04:13:20.782Z,88.12
2023-05-21T04:13:53.234Z,88.12
2023-05-21T04:14:25.697Z,88.12
2023-05-21T04:14:58.122Z,88.12
2023-05-21T04:15:30.557Z,88.12
2023-05-21T04:16:03.021Z,88.12
2023-05-21T04:16:35.566Z,88.02
2023-05-21T04:17:07.882Z,88.02
2023-05-21T04:17:40.360Z,88.12
2023-05-21T04:18:12.769Z,88.02
2023-05-21T04:18:45.653Z,88.02
2023-05-21T04:19:17.697Z,88.02
2023-05-21T04:19:50.122Z,87.92
2023-05-21T04:20:22.550Z,87.92
2023-05-21T04:20:55.050Z,87.92
2023-05-21T04:21:27.503Z,87.92
2023-05-21T04:21:59.938Z,87.81
2023-05-21T04:22:32.427Z,87.77
2023-05-21T04:23:04.865Z,87.67
2023-05-21T04:23:37.397Z,87.67
2023-05-21T04:24:09.882Z,87.57
2023-05-21T04:24:42.381Z,87.57
2023-05-21T04:25:14.851Z,87.47
2023-05-21T04:25:47.283Z,87.47
2023-05-21T04:26:19.769Z,87.37
2023-05-21T04:26:52.200Z,87.37
2023-05-21T04:27:24.713Z,87.37
2023-05-21T04:27:57.130Z,87.26
2023-05-21T04:28:29.618Z,87.16
2023-05-21T04:29:02.077Z,87.16
2023-05-21T04:29:34.523Z,87.16
2023-05-21T04:30:07.002Z,87.16
2023-05-21T04:30:39.433Z,87.02
2023-05-21T04:31:11.891Z,86.92
2023-05-21T04:31:44.443Z,86.92
2023-05-21T04:32:16.815Z,86.82
2023-05-21T04:32:49.286Z,86.82
2023-05-21T04:33:21.691Z,86.71
2023-05-21T04:33:54.099Z,86.71
2023-05-21T04:34:26.560Z,86.71
2023-05-21T04:34:59.009Z,86.51
2023-05-21T04:35:31.496Z,86.51
2023-05-21T04:36:03.956Z,86.61
2023-05-21T04:36:36.549Z,86.61
2023-05-21T04:37:09.010Z,86.51
2023-05-21T04:37:41.444Z,86.61
2023-05-21T04:38:13.875Z,86.51
2023-05-21T04:38:46.368Z,86.51
2023-05-21T04:39:18.867Z,86.41
2023-05-21T04:39:51.317Z,86.41
2023-05-21T04:40:23.736Z,86.41
2023-05-21T04:40:56.197Z,86.41
2023-05-21T04:41:28.684Z,86.41
2023-05-21T04:42:01.118Z,86.41
2023-05-21T04:42:33.576Z,86.31
2023-05-21T04:43:06.106Z,86.21
2023-05-21T04:43:38.585Z,86.21
2023-05-21T04:44:11.040Z,86.16
2023-05-21T04:44:50.606Z,86.16
2023-05-21T04:45:23.040Z,86.07
2023-05-21T04:45:55.551Z,85.96
2023-05-21T04:46:28.064Z,86.07
2023-05-21T04:47:00.539Z,85.86
2023-05-21T04:47:32.930Z,85.86
2023-05-21T04:48:05.354Z,85.86
2023-05-21T04:48:37.793Z,85.76
2023-05-21T04:49:10.269Z,85.66
2023-05-21T04:49:42.661Z,85.66
2023-05-21T04:50:15.082Z,85.76
2023-05-21T04:50:47.560Z,85.76
2023-05-21T04:51:19.989Z,85.76
2023-05-21T04:51:52.427Z,85.76
2023-05-21T04:52:24.866Z,85.66
2023-05-21T04:52:57.376Z,85.66
2023-05-21T04:53:29.873Z,85.66
2023-05-21T04:54:02.307Z,85.66
2023-05-21T04:54:34.771Z,85.52
2023-05-21T04:55:07.238Z,85.52
2023-05-21T04:55:39.715Z,85.52
2023-05-21T04:56:12.245Z,85.31
2023-05-21T04:56:44.718Z,85.31
2023-05-21T04:57:17.253Z,85.21
2023-05-21T04:57:49.698Z,85.21
2023-05-21T04:58:22.178Z,85.01
2023-05-21T04:58:54.692Z,84.91
2023-05-21T04:59:27.181Z,84.91
2023-05-21T04:59:59.661Z,84.91
2023-05-21T05:00:32.134Z,84.91
2023-05-21T05:01:04.597Z,84.97
2023-05-21T05:01:37.058Z,84.87
2023-05-21T05:02:09.678Z,84.77
2023-05-21T05:02:42.231Z,84.56
2023-05-21T05:03:14.792Z,84.56
2023-05-21T05:03:47.168Z,84.46
2023-05-21T05:04:19.608Z,84.56
2023-05-21T05:04:52.298Z,84.46
2023-05-21T05:05:24.648Z,84.36
2023-05-21T05:05:57.092Z,84.36
2023-05-21T05:06:29.544Z,84.36
2023-05-21T05:07:01.969Z,84.46
2023-05-21T05:07:34.456Z,84.46
2023-05-21T05:08:06.908Z,84.46
2023-05-21T05:08:39.360Z,84.36
2023-05-21T05:09:11.768Z,84.36
2023-05-21T05:09:44.224Z,84.26
2023-05-21T05:10:16.645Z,84.16
2023-05-21T05:10:49.116Z,84.26
2023-05-21T05:11:21.542Z,84.26
2023-05-21T05:11:54.028Z,84.26
2023-05-21T05:12:26.443Z,84.26
2023-05-21T05:12:58.889Z,84.26
2023-05-21T05:13:31.346Z,84.26
2023-05-21T05:14:03.817Z,84.16
2023-05-21T05:14:36.252Z,84.05
2023-05-21T05:15:08.685Z,83.95
2023-05-21T05:15:41.104Z,84.05
2023-05-21T05:16:13.535Z,83.81
2023-05-21T05:16:46.031Z,83.91
2023-05-21T05:17:18.472Z,83.71
2023-05-21T05:17:50.972Z,83.71
2023-05-21T05:18:23.389Z,83.71
2023-05-21T05:18:55.957Z,83.71
2023-05-21T05:19:28.461Z,83.71
2023-05-21T05:20:00.880Z,83.61
2023-05-21T05:20:33.306Z,83.51
2023-05-21T05:21:05.767Z,83.40
2023-05-21T05:21:38.230Z,83.51
2023-05-21T05:22:11.825Z,83.51
2023-05-21T05:22:43.154Z,83.51
2023-05-21T05:23:15.594Z,83.40
2023-05-21T05:23:48.044Z,83.51
2023-05-21T05:24:20.491Z,83.51
2023-05-21T05:24:52.930Z,83.61
2023-05-21T05:25:25.450Z,83.61
2023-05-21T05:25:57.884Z,83.61
2023-05-21T05:26:30.353Z,83.47
2023-05-21T05:27:02.792Z,83.37
2023-05-21T05:27:36.985Z,83.17
2023-05-21T05:28:07.794Z,83.17
2023-05-21T05:28:40.247Z,83.06
2023-05-21T05:29:12.723Z,82.86
2023-05-21T05:29:45.141Z,82.76
2023-05-21T05:30:17.600Z,82.76
2023-05-21T05:30:50.097Z,82.76
2023-05-21T05:31:22.700Z,82.66
2023-05-21T05:31:54.975Z,82.76
2023-05-21T05:32:27.491Z,83.06
2023-05-21T05:32:59.977Z,83.17
2023-05-21T05:33:32.361Z,83.06
2023-05-21T05:34:04.800Z,82.96
2023-05-21T05:34:37.281Z,82.86
2023-05-21T05:35:09.836Z,82.82
2023-05-21T05:35:42.325Z,82.82
2023-05-21T05:36:14.776Z,82.82
2023-05-21T05:36:47.238Z,82.82
2023-05-21T05:37:19.728Z,82.82
2023-05-21T05:37:52.193Z,82.62
2023-05-21T05:38:24.668Z,82.31
2023-05-21T05:38:57.210Z,82.31
2023-05-21T05:39:29.690Z,82.42
2023-05-21T05:40:02.151Z,82.11
2023-05-21T05:40:34.615Z,82.11
2023-05-21T05:41:07.117Z,81.60
2023-05-21T05:41:39.613Z,81.60
2023-05-21T05:42:12.046Z,81.71
2023-05-21T05:42:44.506Z,81.71
2023-05-21T05:43:16.940Z,81.81
2023-05-21T05:43:49.402Z,81.91
2023-05-21T05:44:21.873Z,81.91
2023-05-21T05:44:54.325Z,81.81
2023-05-21T05:45:26.898Z,81.77
2023-05-21T05:45:59.332Z,81.57
2023-05-21T05:46:31.830Z,81.57
2023-05-21T05:47:04.264Z,81.67
2023-05-21T05:47:36.786Z,81.67
2023-05-21T05:48:09.228Z,81.67
2023-05-21T05:48:41.654Z,81.67
2023-05-21T05:49:14.117Z,81.67
2023-05-21T05:49:46.581Z,81.67
2023-05-21T05:50:19.048Z,81.67
2023-05-21T05:50:51.529Z,81.37
2023-05-21T05:51:24.050Z,80.96
2023-05-21T05:51:56.526Z,80.96
2023-05-21T05:52:29.021Z,81.26
2023-05-21T05:53:01.537Z,81.57
2023-05-21T05:53:34.037Z,81.67
2023-05-21T05:54:06.532Z,81.57
2023-05-21T05:54:38.974Z,81.46
2023-05-21T05:55:11.457Z,81.46
2023-05-21T05:55:43.923Z,81.57
2023-05-21T05:56:16.372Z,81.57
2023-05-21T05:56:48.872Z,81.57
2023-05-21T05:57:21.337Z,81.57
2023-05-21T05:57:53.775Z,81.57
2023-05-21T05:58:26.257Z,81.46
2023-05-21T05:58:58.728Z,81.16
2023-05-21T05:59:31.275Z,81.06
2023-05-21T06:00:03.694Z,80.92
2023-05-21T06:00:36.146Z,81.02
2023-05-21T06:01:08.603Z,81.12
2023-05-21T06:01:41.113Z,81.02
2023-05-21T06:02:13.724Z,80.92
2023-05-21T06:02:46.145Z,80.92
2023-05-21T06:03:18.607Z,81.02
2023-05-21T06:03:51.065Z,80.92
2023-05-21T06:04:23.457Z,80.82
2023-05-21T06:04:55.927Z,80.92
2023-05-21T06:05:28.397Z,80.92
2023-05-21T06:06:00.900Z,80.98
2023-05-21T06:06:33.307Z,80.98
2023-05-21T06:07:05.755Z,81.09
2023-05-21T06:07:38.195Z,80.58
2023-05-21T06:08:10.673Z,80.07
2023-05-21T06:08:43.112Z,79.97
2023-05-21T06:09:15.561Z,80.07
2023-05-21T06:09:47.996Z,80.27
2023-05-21T06:10:20.446Z,80.18
2023-05-21T06:10:52.965Z,80.13
2023-05-21T06:11:25.469Z,80.04
2023-05-21T06:11:57.922Z,79.73
2023-05-21T06:12:30.391Z,79.83
2023-05-21T06:13:02.870Z,79.73
2023-05-21T06:13:35.379Z,79.33
2023-05-21T06:14:07.868Z,79.33
2023-05-21T06:14:40.388Z,79.43
2023-05-21T06:15:12.829Z,79.49
2023-05-21T06:15:45.369Z,79.08
2023-05-21T06:16:17.882Z,79.29
2023-05-21T06:16:50.235Z,79.29
2023-05-21T06:17:22.740Z,79.29
2023-05-21T06:17:55.205Z,79.08
2023-05-21T06:18:27.642Z,78.88
2023-05-21T06:19:00.161Z,78.88
2023-05-21T06:19:32.601Z,78.88
2023-05-21T06:20:05.011Z,78.88
2023-05-21T06:20:37.495Z,78.78
2023-05-21T06:21:09.953Z,78.38
2023-05-21T06:21:42.428Z,78.28
2023-05-21T06:22:14.877Z,77.73
2023-05-21T06:22:47.365Z,77.94
2023-05-21T06:23:19.791Z,77.94
2023-05-21T06:23:52.234Z,77.64
2023-05-21T06:24:24.678Z,77.53
2023-05-21T06:24:57.154Z,77.64
2023-05-21T06:25:29.597Z,77.73
2023-05-21T06:26:02.027Z,77.73
2023-05-21T06:26:34.444Z,77.73
2023-05-21T06:27:06.932Z,77.73
2023-05-21T06:27:39.383Z,77.84
2023-05-21T06:28:11.835Z,77.73
2023-05-21T06:28:44.295Z,77.39
2023-05-21T06:29:16.790Z,77.50
2023-05-21T06:29:49.290Z,77.19
2023-05-21T06:30:21.757Z,77.09
2023-05-21T06:30:54.213Z,77.09
2023-05-21T06:31:26.704Z,76.89
2023-05-21T06:31:59.201Z,76.59
2023-05-21T06:32:31.683Z,76.69
2023-05-21T06:33:04.236Z,76.55
2023-05-21T06:33:36.782Z,76.45
2023-05-21T06:34:09.143Z,76.45
2023-05-21T06:34:41.467Z,76.35
2023-05-21T06:35:13.954Z,76.45
2023-05-21T06:35:46.385Z,76.42
2023-05-21T06:36:18.819Z,75.91
2023-05-21T06:36:51.284Z,75.40
2023-05-21T06:37:25.268Z,75.40
2023-05-21T06:37:56.211Z,74.90
2023-05-21T06:38:28.664Z,75.00
2023-05-21T06:39:01.159Z,75.40
2023-05-21T06:39:33.540Z,75.20
2023-05-21T06:40:05.955Z,75.20
2023-05-21T06:40:38.398Z,75.40
2023-05-21T06:41:10.824Z,75.51
2023-05-21T06:41:43.284Z,75.31
2023-05-21T06:42:15.705Z,75.07
2023-05-21T06:42:48.155Z,74.76
2023-05-21T06:43:20.631Z,74.46
2023-05-21T06:43:53.096Z,74.46
2023-05-21T06:44:25.556Z,74.66
2023-05-21T06:44:58.021Z,74.76
2023-05-21T06:45:30.536Z,74.26
2023-05-21T06:46:02.992Z,73.75
2023-05-21T06:46:35.487Z,73.55
2023-05-21T06:47:07.900Z,73.75
2023-05-21T06:47:40.347Z,73.89
2023-05-21T06:48:12.824Z,74.09
2023-05-21T06:48:45.262Z,74.29
2023-05-21T06:49:17.763Z,74.60
2023-05-21T06:49:50.203Z,74.40
2023-05-21T06:50:22.694Z,74.49
2023-05-21T06:50:55.167Z,73.99
2023-05-21T06:51:27.616Z,74.19
2023-05-21T06:52:00.127Z,74.29
2023-05-21T06:52:32.559Z,74.29
2023-05-21T06:53:05.015Z,74.40
2023-05-21T06:53:37.481Z,74.40
2023-05-21T06:54:09.960Z,74.09
2023-05-21T06:54:42.431Z,74.19
2023-05-21T06:55:14.845Z,73.99
2023-05-21T06:55:47.276Z,74.19
2023-05-21T06:56:19.720Z,74.29
2023-05-21T06:56:52.180Z,74.40
2023-05-21T06:57:24.633Z,74.19
2023-05-21T06:57:57.150Z,73.99